Time;durP1;ratioP1;P1;durP2;ratioP2;P2;SDS_P1;SDS_P2;PMS_P1;PMS_P2;Temp;Humidity;BMP_temperature;BMP_pressure;BME280_temperature;BME280_humidity;BME280_pressure;Samples;Min_cycle;Max_cycle;Signal;HPM_P1;HPM_P2
2022/05/19 00:01:55;;;;;;;27.88;18.42;;;;;;;;;;5283729;28;20032;-70
2022/05/19 00:04:27;;;;;;;27.02;18.92;;;;;;;;;;5282563;28;20464;-70
2022/05/19 00:06:58;;;;;;;25.65;18.33;;;;;;;;;;5283831;28;20028;-70
2022/05/19 00:09:29;;;;;;;27.38;18.80;;;;;;;;;;5283128;28;20028;-70
2022/05/19 00:12:03;;;;;;;25.20;19.27;;;;;;;;;;5282695;28;20047;-70
2022/05/19 00:14:34;;;;;;;24.15;19.67;;;;;;;;;;5283035;28;20060;-70
2022/05/19 00:17:05;;;;;;;28.52;18.77;;;;;;;;;;5283335;28;20063;-71
2022/05/19 00:19:37;;;;;;;23.42;19.58;;;;;;;;;;5282429;28;20044;-70
2022/05/19 00:22:08;;;;;;;24.75;19.02;;;;;;;;;;5282440;28;20041;-70
2022/05/19 00:24:40;;;;;;;24.15;19.15;;;;;;;;;;5282758;28;20406;-71
2022/05/19 00:27:11;;;;;;;21.60;18.30;;;;;;;;;;5282044;28;20619;-70
2022/05/19 00:29:42;;;;;;;27.35;20.15;;;;;;;;;;5282755;28;20079;-69
2022/05/19 00:32:13;;;;;;;25.60;20.07;;;;;;;;;;5282140;28;20379;-69
2022/05/19 00:34:44;;;;;;;24.67;19.63;;;;;;;;;;5282740;28;20308;-70
2022/05/19 00:37:16;;;;;;;28.80;19.80;;;;;;;;;;5282627;28;20055;-70
2022/05/19 00:39:47;;;;;;;27.67;21.00;;;;;;;;;;5281815;28;20258;-70
2022/05/19 00:45:08;;;;;;;28.55;20.27;;;;;;;;;;5282821;28;20040;-70
2022/05/19 00:47:45;;;;;;;25.88;20.75;;;;;;;;;;5281777;28;20491;-70
2022/05/19 00:50:39;;;;;;;28.35;20.95;;;;;;;;;;5282438;28;20036;-70
2022/05/19 00:53:18;;;;;;;27.60;20.70;;;;;;;;;;5271083;28;20112;-71
2022/05/19 00:55:50;;;;;;;27.98;20.85;;;;;;;;;;5282840;28;20017;-70
2022/05/19 00:58:32;;;;;;;27.75;21.75;;;;;;;;;;5281777;28;20016;-71
2022/05/19 01:01:03;;;;;;;28.73;21.45;;;;;;;;;;5281890;28;20490;-71
2022/05/19 01:03:37;;;;;;;27.42;21.77;;;;;;;;;;5282046;28;20012;-70
2022/05/19 01:06:13;;;;;;;29.90;21.52;;;;;;;;;;5281926;28;20016;-70
2022/05/19 01:08:51;;;;;;;27.38;21.25;;;;;;;;;;5281347;28;20027;-70
2022/05/19 01:11:22;;;;;;;31.35;22.50;;;;;;;;;;5281553;28;20039;-70
2022/05/19 01:13:53;;;;;;;27.10;22.05;;;;;;;;;;5282225;28;20472;-70
2022/05/19 01:16:24;;;;;;;28.65;21.88;;;;;;;;;;5280866;28;20052;-70
2022/05/19 01:18:56;;;;;;;30.38;21.88;;;;;;;;;;5281871;28;20031;-70
2022/05/19 01:21:29;;;;;;;27.92;22.55;;;;;;;;;;5280395;28;20048;-70
2022/05/19 01:24:19;;;;;;;27.95;21.33;;;;;;;;;;5282022;28;20024;-69
2022/05/19 01:26:52;;;;;;;30.20;22.30;;;;;;;;;;5282143;28;20035;-70
2022/05/19 01:29:25;;;;;;;29.17;22.63;;;;;;;;;;5280523;28;20068;-70
2022/05/19 01:32:01;;;;;;;34.53;23.42;;;;;;;;;;5282109;28;20059;-69
2022/05/19 01:34:33;;;;;;;31.27;22.10;;;;;;;;;;5280662;28;20017;-70
2022/05/19 01:37:04;;;;;;;26.35;22.85;;;;;;;;;;5280864;28;20020;-70
2022/05/19 01:39:35;;;;;;;26.60;22.30;;;;;;;;;;5281117;28;20028;-70
2022/05/19 01:42:13;;;;;;;27.70;23.08;;;;;;;;;;5281173;28;20398;-70
2022/05/19 01:44:50;;;;;;;30.52;23.83;;;;;;;;;;5281494;28;20039;-70
2022/05/19 01:47:24;;;;;;;31.23;23.57;;;;;;;;;;5281193;28;20435;-70
2022/05/19 01:50:00;;;;;;;30.13;24.20;;;;;;;;;;5280834;28;20042;-70
2022/05/19 01:52:36;;;;;;;31.25;24.40;;;;;;;;;;5281404;28;20119;-71
2022/05/19 01:55:11;;;;;;;31.20;24.85;;;;;;;;;;5281355;28;20032;-70
2022/05/19 01:57:46;;;;;;;33.30;24.80;;;;;;;;;;5280496;28;20455;-69
2022/05/19 02:00:19;;;;;;;32.65;24.30;;;;;;;;;;5280838;28;20031;-69
2022/05/19 02:02:54;;;;;;;33.13;24.25;;;;;;;;;;5281364;28;20215;-69
2022/05/19 02:05:43;;;;;;;31.55;23.60;;;;;;;;;;5280217;28;20399;-70
2022/05/19 02:08:17;;;;;;;26.75;22.65;;;;;;;;;;5280954;28;20085;-70
2022/05/19 02:10:50;;;;;;;30.10;23.60;;;;;;;;;;5280215;28;20039;-68
2022/05/19 02:13:22;;;;;;;25.60;22.85;;;;;;;;;;5280639;28;20070;-69
2022/05/19 02:15:54;;;;;;;27.02;23.17;;;;;;;;;;5281455;28;20023;-70
2022/05/19 02:18:26;;;;;;;26.55;22.75;;;;;;;;;;5280441;28;20020;-69
2022/05/19 02:21:01;;;;;;;24.02;21.25;;;;;;;;;;5281249;28;20055;-70
2022/05/19 02:23:33;;;;;;;25.08;20.55;;;;;;;;;;5280943;28;20017;-69
2022/05/19 02:26:04;;;;;;;24.90;20.55;;;;;;;;;;5280379;28;20176;-70
2022/05/19 02:28:55;;;;;;;25.42;20.50;;;;;;;;;;5281148;28;20095;-69
2022/05/19 02:31:26;;;;;;;21.33;19.08;;;;;;;;;;5279948;28;20034;-70
2022/05/19 02:33:57;;;;;;;27.58;20.48;;;;;;;;;;5281260;28;20008;-69
2022/05/19 02:36:29;;;;;;;22.27;18.95;;;;;;;;;;5280922;28;20050;-70
2022/05/19 02:39:00;;;;;;;26.77;19.48;;;;;;;;;;5280571;28;20375;-70
2022/05/19 02:41:32;;;;;;;25.15;17.83;;;;;;;;;;5281050;28;20020;-70
2022/05/19 02:44:03;;;;;;;19.98;16.92;;;;;;;;;;5281213;28;20066;-70
2022/05/19 02:46:34;;;;;;;22.92;16.77;;;;;;;;;;5283231;28;20028;-70
2022/05/19 02:49:05;;;;;;;20.70;18.00;;;;;;;;;;5285174;28;20029;-71
2022/05/19 02:51:37;;;;;;;17.33;15.57;;;;;;;;;;5285013;28;20033;-70
2022/05/19 02:54:08;;;;;;;21.03;16.13;;;;;;;;;;5284228;28;20266;-70
2022/05/19 02:56:39;;;;;;;21.17;16.75;;;;;;;;;;5284796;28;20282;-70
2022/05/19 02:59:10;;;;;;;25.45;16.08;;;;;;;;;;5284694;28;20066;-70
2022/05/19 03:01:41;;;;;;;17.63;15.02;;;;;;;;;;5284125;28;20425;-71
2022/05/19 03:04:13;;;;;;;16.73;15.00;;;;;;;;;;5284779;28;20012;-71
2022/05/19 03:06:44;;;;;;;21.92;17.25;;;;;;;;;;5284192;28;20675;-71
2022/05/19 03:09:15;;;;;;;20.60;18.40;;;;;;;;;;5284609;28;20440;-71
2022/05/19 03:11:46;;;;;;;19.92;14.57;;;;;;;;;;5284489;28;20297;-69
2022/05/19 03:14:17;;;;;;;21.85;16.20;;;;;;;;;;5283862;28;20016;-70
2022/05/19 03:16:49;;;;;;;20.73;15.80;;;;;;;;;;5284478;28;20074;-70
2022/05/19 03:19:21;;;;;;;18.27;15.70;;;;;;;;;;5284025;28;20028;-70
2022/05/19 03:21:53;;;;;;;21.30;15.40;;;;;;;;;;5283486;28;20056;-70
2022/05/19 03:24:24;;;;;;;16.83;14.50;;;;;;;;;;5284071;28;20386;-70
2022/05/19 03:26:56;;;;;;;20.35;14.18;;;;;;;;;;5284616;28;20270;-71
2022/05/19 03:29:27;;;;;;;16.95;14.15;;;;;;;;;;5282922;28;20023;-70
2022/05/19 03:31:59;;;;;;;16.85;12.82;;;;;;;;;;5284291;28;20533;-70
2022/05/19 03:34:30;;;;;;;15.98;14.10;;;;;;;;;;5283717;28;20485;-71
2022/05/19 03:37:02;;;;;;;19.55;13.60;;;;;;;;;;5283185;28;20025;-70
2022/05/19 03:39:35;;;;;;;16.38;13.65;;;;;;;;;;5283742;28;20024;-70
2022/05/19 03:42:07;;;;;;;19.65;14.20;;;;;;;;;;5283020;28;20052;-69
2022/05/19 03:44:38;;;;;;;18.13;14.90;;;;;;;;;;5283739;28;20487;-70
2022/05/19 03:47:09;;;;;;;17.48;14.57;;;;;;;;;;5283582;28;20468;-70
2022/05/19 03:49:40;;;;;;;19.13;15.20;;;;;;;;;;5282979;28;20476;-71
2022/05/19 03:52:12;;;;;;;19.67;14.27;;;;;;;;;;5283708;28;20107;-71
2022/05/19 03:54:44;;;;;;;18.50;14.70;;;;;;;;;;5283636;28;20012;-71
2022/05/19 03:57:17;;;;;;;19.20;14.05;;;;;;;;;;5281987;28;20343;-71
2022/05/19 03:59:49;;;;;;;21.13;14.30;;;;;;;;;;5283498;28;20091;-71
2022/05/19 04:02:20;;;;;;;18.25;14.18;;;;;;;;;;5283324;28;20542;-70
2022/05/19 04:04:51;;;;;;;18.23;14.05;;;;;;;;;;5283107;28;20012;-70
2022/05/19 04:07:22;;;;;;;20.52;14.35;;;;;;;;;;5282958;28;20029;-70
2022/05/19 04:09:53;;;;;;;18.90;14.25;;;;;;;;;;5282702;28;20039;-69
2022/05/19 04:12:25;;;;;;;18.73;13.27;;;;;;;;;;5283015;28;20824;-69
2022/05/19 04:14:56;;;;;;;18.52;14.52;;;;;;;;;;5283513;28;20528;-69
2022/05/19 04:17:33;;;;;;;21.70;12.63;;;;;;;;;;5282138;28;20434;-70
2022/05/19 04:20:05;;;;;;;17.95;14.02;;;;;;;;;;5282837;28;20341;-70
2022/05/19 04:22:37;;;;;;;16.52;13.73;;;;;;;;;;5282877;28;20041;-71
2022/05/19 04:25:09;;;;;;;19.15;13.73;;;;;;;;;;5282517;28;20490;-71
2022/05/19 04:27:40;;;;;;;19.20;14.15;;;;;;;;;;5283144;28;20028;-71
2022/05/19 04:30:12;;;;;;;18.35;14.60;;;;;;;;;;5283096;28;20033;-69
2022/05/19 04:32:43;;;;;;;20.25;15.20;;;;;;;;;;5282173;28;20044;-70
2022/05/19 04:35:14;;;;;;;20.23;14.75;;;;;;;;;;5282948;28;20040;-70
2022/05/19 04:37:46;;;;;;;16.48;14.43;;;;;;;;;;5282910;28;20052;-71
2022/05/19 04:40:18;;;;;;;23.63;15.73;;;;;;;;;;5282314;28;20016;-70
2022/05/19 04:42:49;;;;;;;19.55;15.50;;;;;;;;;;5283081;28;20038;-70
2022/05/19 04:45:21;;;;;;;20.17;14.80;;;;;;;;;;5281434;28;20071;-70
2022/05/19 04:47:52;;;;;;;17.48;14.40;;;;;;;;;;5282782;28;20051;-69
2022/05/19 04:50:23;;;;;;;18.30;14.50;;;;;;;;;;5282118;28;20025;-69
2022/05/19 04:52:58;;;;;;;18.02;14.75;;;;;;;;;;5282004;28;20044;-70
2022/05/19 04:55:29;;;;;;;18.90;14.10;;;;;;;;;;5282101;28;20386;-70
2022/05/19 04:58:01;;;;;;;16.47;12.17;;;;;;;;;;5282364;28;20020;-70
2022/05/19 05:00:33;;;;;;;13.63;12.23;;;;;;;;;;5281486;28;20278;-70
2022/05/19 05:03:04;;;;;;;15.45;12.10;;;;;;;;;;5282421;28;20009;-70
2022/05/19 05:05:35;;;;;;;15.07;11.73;;;;;;;;;;5282109;28;20016;-70
2022/05/19 05:08:07;;;;;;;27.98;11.82;;;;;;;;;;5280722;28;20099;-70
2022/05/19 05:10:39;;;;;;;17.23;11.20;;;;;;;;;;5281479;28;20073;-70
2022/05/19 05:13:12;;;;;;;19.20;10.02;;;;;;;;;;5281307;28;20025;-70
2022/05/19 05:15:43;;;;;;;20.00;10.27;;;;;;;;;;5282118;28;20020;-70
2022/05/19 05:18:14;;;;;;;21.52;10.70;;;;;;;;;;5281947;28;20031;-71
2022/05/19 05:20:45;;;;;;;28.83;13.23;;;;;;;;;;5280932;28;20051;-72
2022/05/19 05:23:17;;;;;;;16.50;12.70;;;;;;;;;;5282357;28;20811;-70
2022/05/19 05:25:48;;;;;;;18.38;12.95;;;;;;;;;;5282191;28;20285;-70
2022/05/19 05:28:19;;;;;;;23.27;12.27;;;;;;;;;;5281181;28;20714;-70
2022/05/19 05:30:51;;;;;;;23.63;14.25;;;;;;;;;;5282355;28;20303;-70
2022/05/19 05:33:22;;;;;;;16.55;11.70;;;;;;;;;;5281468;28;20091;-69
2022/05/19 05:35:53;;;;;;;16.70;13.25;;;;;;;;;;5281632;28;20103;-70
2022/05/19 05:38:25;;;;;;;16.85;11.13;;;;;;;;;;5281601;28;20016;-70
2022/05/19 05:40:56;;;;;;;19.48;12.07;;;;;;;;;;5281996;28;20024;-69
2022/05/19 05:43:27;;;;;;;16.52;12.32;;;;;;;;;;5280642;28;20017;-70
2022/05/19 05:46:03;;;;;;;15.68;11.82;;;;;;;;;;5281775;28;20066;-70
2022/05/19 05:48:36;;;;;;;19.67;13.57;;;;;;;;;;5280785;28;20024;-70
2022/05/19 05:51:09;;;;;;;17.33;13.55;;;;;;;;;;5281425;28;20024;-70
2022/05/19 05:53:41;;;;;;;15.63;11.55;;;;;;;;;;5281449;28;20031;-70
2022/05/19 05:56:14;;;;;;;13.10;10.65;;;;;;;;;;5280553;28;20070;-70
2022/05/19 05:58:45;;;;;;;12.38;11.07;;;;;;;;;;5281481;28;20013;-69
2022/05/19 06:01:18;;;;;;;12.90;10.60;;;;;;;;;;5281170;28;20039;-69
2022/05/19 06:03:49;;;;;;;15.82;10.93;;;;;;;;;;5280444;28;20017;-68
2022/05/19 06:06:20;;;;;;;13.20;10.77;;;;;;;;;;5280729;28;20025;-69
2022/05/19 06:08:52;;;;;;;18.02;12.95;;;;;;;;;;5281302;28;20017;-69
2022/05/19 06:11:23;;;;;;;14.50;12.90;;;;;;;;;;5280260;28;20407;-69
2022/05/19 06:13:54;;;;;;;19.42;13.80;;;;;;;;;;5281258;28;20336;-69
2022/05/19 06:16:25;;;;;;;16.53;14.80;;;;;;;;;;5280484;28;20360;-70
2022/05/19 06:18:56;;;;;;;16.23;14.18;;;;;;;;;;5280569;28;20267;-70
2022/05/19 06:21:28;;;;;;;15.98;14.30;;;;;;;;;;5279904;28;20402;-69
2022/05/19 06:23:59;;;;;;;16.85;14.00;;;;;;;;;;5280594;28;20016;-69
2022/05/19 06:26:33;;;;;;;16.70;14.68;;;;;;;;;;5280704;28;20021;-69
2022/05/19 06:29:04;;;;;;;17.13;15.30;;;;;;;;;;5281116;28;20367;-69
2022/05/19 06:31:35;;;;;;;16.17;14.48;;;;;;;;;;5279835;28;20086;-70
2022/05/19 06:34:06;;;;;;;17.58;14.57;;;;;;;;;;5280982;28;20016;-70
2022/05/19 06:36:37;;;;;;;15.80;14.13;;;;;;;;;;5280887;28;20039;-70
2022/05/19 06:39:09;;;;;;;15.13;13.63;;;;;;;;;;5275609;28;20076;-69
2022/05/19 06:44:38;;;;;;;14.05;12.65;;;;;;;;;;5280563;28;20032;-69
2022/05/19 06:47:15;;;;;;;;;;;;;;;;;;5280848;28;20092;-69
2022/05/19 06:49:47;;;;;;;14.77;13.25;;;;;;;;;;5280849;28;19905;-70
2022/05/19 06:52:19;;;;;;;15.35;13.70;;;;;;;;;;5279490;28;20363;-71
2022/05/19 06:54:54;;;;;;;14.93;13.35;;;;;;;;;;5280457;28;20135;-69
2022/05/19 06:57:26;;;;;;;14.07;12.63;;;;;;;;;;5280100;28;20085;-69
2022/05/19 06:59:57;;;;;;;15.50;12.32;;;;;;;;;;5279862;28;20459;-71
2022/05/19 07:02:28;;;;;;;15.68;13.30;;;;;;;;;;5279972;28;20380;-70
2022/05/19 07:05:00;;;;;;;14.52;12.77;;;;;;;;;;5280378;28;20020;-70
2022/05/19 07:07:31;;;;;;;15.93;14.13;;;;;;;;;;5279816;28;20421;-70
2022/05/19 07:10:02;;;;;;;14.55;13.25;;;;;;;;;;5280620;28;20043;-70
2022/05/19 07:12:34;;;;;;;14.45;11.73;;;;;;;;;;5280310;28;20012;-70
2022/05/19 07:15:05;;;;;;;14.90;12.13;;;;;;;;;;5279968;28;20036;-70
2022/05/19 07:17:36;;;;;;;14.50;11.55;;;;;;;;;;5280297;28;20267;-71
2022/05/19 07:22:58;;;;;;;14.15;12.65;;;;;;;;;;5281018;28;20029;-70
2022/05/19 07:25:29;;;;;;;13.05;11.75;;;;;;;;;;5280038;28;20451;-71
2022/05/19 07:28:00;;;;;;;12.97;10.97;;;;;;;;;;5279794;28;20017;-71
2022/05/19 07:30:32;;;;;;;14.55;12.82;;;;;;;;;;5280518;28;20325;-71
2022/05/19 07:33:03;;;;;;;12.87;11.57;;;;;;;;;;5282885;28;20041;-70
2022/05/19 07:35:34;;;;;;;14.23;12.30;;;;;;;;;;5283327;28;20035;-72
2022/05/19 07:38:05;;;;;;;13.90;11.93;;;;;;;;;;5284034;28;20023;-72
2022/05/19 07:40:37;;;;;;;15.23;11.02;;;;;;;;;;5283792;28;20028;-72
2022/05/19 07:45:57;;;;;;;11.07;9.98;;;;;;;;;;5284349;28;20036;-71
2022/05/19 07:48:29;;;;;;;11.82;10.63;;;;;;;;;;5282940;28;20352;-71
2022/05/19 07:51:00;;;;;;;14.60;11.70;;;;;;;;;;5284287;28;20111;-71
2022/05/19 07:53:31;;;;;;;13.30;10.73;;;;;;;;;;5284031;28;20308;-71
2022/05/19 07:56:03;;;;;;;15.50;11.80;;;;;;;;;;5277219;28;20021;-71
2022/05/19 07:58:34;;;;;;;16.00;11.88;;;;;;;;;;5283728;28;20029;-71
2022/05/19 08:01:05;;;;;;;12.35;10.25;;;;;;;;;;5283842;28;20352;-71
2022/05/19 08:03:36;;;;;;;16.05;10.50;;;;;;;;;;5282844;28;20111;-73
2022/05/19 08:06:10;;;;;;;10.48;9.38;;;;;;;;;;5283477;28;20459;-71
2022/05/19 08:08:41;;;;;;;11.52;8.98;;;;;;;;;;5283795;28;20020;-73
2022/05/19 08:11:12;;;;;;;14.45;9.15;;;;;;;;;;5282704;28;20051;-71
2022/05/19 08:16:38;;;;;;;10.00;8.30;;;;;;;;;;5281748;28;20043;-71
2022/05/19 08:19:10;;;;;;;10.95;7.85;;;;;;;;;;5283401;28;20017;-71
2022/05/19 08:21:41;;;;;;;9.68;7.82;;;;;;;;;;5283135;28;20159;-70
2022/05/19 08:24:13;;;;;;;10.33;6.90;;;;;;;;;;5282634;28;20040;-71
2022/05/19 08:26:44;;;;;;;11.35;7.15;;;;;;;;;;5283580;28;20024;-72
2022/05/19 08:29:18;;;;;;;10.82;6.90;;;;;;;;;;5283205;28;20026;-72
2022/05/19 08:31:50;;;;;;;13.68;7.20;;;;;;;;;;5282733;28;20532;-71
2022/05/19 08:34:22;;;;;;;8.18;5.97;;;;;;;;;;5282765;28;20095;-72
2022/05/19 08:36:53;;;;;;;8.45;5.75;;;;;;;;;;5282663;28;20028;-71
2022/05/19 08:39:25;;;;;;;8.57;5.47;;;;;;;;;;5281834;28;20031;-72
2022/05/19 08:41:59;;;;;;;6.88;5.10;;;;;;;;;;5283211;28;20443;-71
2022/05/19 08:44:30;;;;;;;8.95;5.28;;;;;;;;;;5281471;28;20035;-72
2022/05/19 08:47:02;;;;;;;8.45;4.32;;;;;;;;;;5282821;28;20013;-73
2022/05/19 08:49:34;;;;;;;9.82;4.50;;;;;;;;;;5282718;28;20027;-71
2022/05/19 08:52:25;;;;;;;9.35;4.70;;;;;;;;;;5269378;28;20024;-72
2022/05/19 08:54:56;;;;;;;10.35;4.78;;;;;;;;;;5276347;28;20027;-71
2022/05/19 08:57:40;;;;;;;8.77;5.15;;;;;;;;;;5281104;28;20375;-72
2022/05/19 09:00:14;;;;;;;7.82;3.58;;;;;;;;;;5280216;28;20055;-71
2022/05/19 09:02:45;;;;;;;6.05;3.28;;;;;;;;;;5281626;28;20027;-72
2022/05/19 09:05:32;;;;;;;6.57;4.13;;;;;;;;;;5281059;28;20028;-72
2022/05/19 09:08:12;;;;;;;7.93;4.88;;;;;;;;;;5281189;28;20359;-72
2022/05/19 09:10:46;;;;;;;3.80;3.38;;;;;;;;;;5281670;28;20029;-71
2022/05/19 09:13:30;;;;;;;5.28;3.33;;;;;;;;;;5280651;28;20033;-71
2022/05/19 09:16:06;;;;;;;5.25;3.20;;;;;;;;;;5281569;28;20063;-71
2022/05/19 09:18:40;;;;;;;4.95;3.63;;;;;;;;;;5281544;28;20371;-71
2022/05/19 09:21:12;;;;;;;11.13;4.50;;;;;;;;;;5280603;28;20044;-71
2022/05/19 09:23:43;;;;;;;6.67;3.47;;;;;;;;;;5281055;28;20015;-72
2022/05/19 09:26:26;;;;;;;6.47;3.30;;;;;;;;;;5281237;28;20372;-72
2022/05/19 09:29:04;;;;;;;9.48;3.80;;;;;;;;;;5281747;28;20024;-70
2022/05/19 09:31:41;;;;;;;6.53;3.42;;;;;;;;;;5281249;28;20394;-71
2022/05/19 09:34:12;;;;;;;6.85;3.28;;;;;;;;;;5280352;28;20025;-71
2022/05/19 09:37:13;;;;;;;11.07;4.07;;;;;;;;;;5281040;28;20351;-71
2022/05/19 09:39:53;;;;;;;8.90;3.53;;;;;;;;;;5280408;28;20138;-71
2022/05/19 09:42:34;;;;;;;8.82;3.28;;;;;;;;;;5279660;28;20036;-71
2022/05/19 09:45:07;;;;;;;5.78;3.20;;;;;;;;;;5280904;28;20023;-71
2022/05/19 09:47:41;;;;;;;7.38;2.90;;;;;;;;;;5280141;28;20621;-71
2022/05/19 09:50:18;;;;;;;7.47;3.15;;;;;;;;;;5280893;28;20021;-71
2022/05/19 09:52:50;;;;;;;9.55;3.80;;;;;;;;;;5281004;28;20060;-71
2022/05/19 09:55:23;;;;;;;9.48;2.92;;;;;;;;;;5279153;28;20052;-71
2022/05/19 09:57:56;;;;;;;8.75;3.53;;;;;;;;;;5281179;28;20416;-71
2022/05/19 10:00:49;;;;;;;8.63;2.47;;;;;;;;;;5280986;28;20071;-71
2022/05/19 10:03:25;;;;;;;8.20;2.83;;;;;;;;;;5280567;28;20881;-72
2022/05/19 10:05:57;;;;;;;9.90;2.35;;;;;;;;;;5281801;28;20112;-72
2022/05/19 10:08:35;;;;;;;6.07;2.10;;;;;;;;;;5281027;28;20099;-71
2022/05/19 10:11:23;;;;;;;5.13;1.35;;;;;;;;;;5281398;28;20479;-72
2022/05/19 10:13:56;;;;;;;4.30;1.33;;;;;;;;;;5281608;28;20020;-72
2022/05/19 10:16:46;;;;;;;5.35;1.65;;;;;;;;;;5280248;28;20048;-71
2022/05/19 10:19:23;;;;;;;7.03;1.20;;;;;;;;;;5281547;28;20368;-71
2022/05/19 10:22:06;;;;;;;4.68;1.25;;;;;;;;;;5281493;28;20488;-73
2022/05/19 10:24:58;;;;;;;29.80;3.92;;;;;;;;;;5280572;28;20029;-72
2022/05/19 10:31:03;;;;;;;4.95;1.38;;;;;;;;;;5278831;28;20037;-72
2022/05/19 10:33:53;;;;;;;13.65;1.25;;;;;;;;;;5281021;28;20017;-72
2022/05/19 10:36:45;;;;;;;4.95;1.58;;;;;;;;;;5281010;28;20021;-72
2022/05/19 10:39:35;;;;;;;6.13;1.40;;;;;;;;;;5279825;28;20093;-73
2022/05/19 10:42:21;;;;;;;8.25;1.55;;;;;;;;;;5280856;28;20024;-73
2022/05/19 10:45:01;;;;;;;7.85;1.25;;;;;;;;;;5280579;28;20052;-72
2022/05/19 10:47:38;;;;;;;6.03;1.02;;;;;;;;;;5280744;28;20021;-70
2022/05/19 10:50:16;;;;;;;7.28;1.20;;;;;;;;;;5281148;28;20364;-69
2022/05/19 10:52:53;;;;;;;9.13;1.27;;;;;;;;;;5280303;28;20020;-68
2022/05/19 10:55:32;;;;;;;4.47;1.58;;;;;;;;;;5280556;28;20436;-69
2022/05/19 10:58:04;;;;;;;3.83;1.20;;;;;;;;;;5279949;28;20028;-69
2022/05/19 11:00:47;;;;;;;6.00;1.17;;;;;;;;;;5280483;28;20021;-68
2022/05/19 11:03:21;;;;;;;7.22;1.38;;;;;;;;;;5280605;28;20024;-69
2022/05/19 11:05:52;;;;;;;5.38;1.08;;;;;;;;;;5280641;28;20012;-69
2022/05/19 11:08:42;;;;;;;4.93;1.40;;;;;;;;;;5284445;28;20471;-69
2022/05/19 11:11:17;;;;;;;4.35;1.00;;;;;;;;;;5284397;28;20032;-69
2022/05/19 11:14:06;;;;;;;7.38;1.42;;;;;;;;;;5283885;28;20021;-69
2022/05/19 11:16:43;;;;;;;5.18;1.25;;;;;;;;;;5284379;28;20025;-70
2022/05/19 11:19:17;;;;;;;4.40;1.30;;;;;;;;;;5283634;28;20073;-69
2022/05/19 11:21:53;;;;;;;5.97;0.98;;;;;;;;;;5284317;28;20052;-68
2022/05/19 11:24:32;;;;;;;5.07;1.20;;;;;;;;;;5284244;28;20124;-70
2022/05/19 11:27:17;;;;;;;4.28;0.90;;;;;;;;;;5282953;28;20024;-70
2022/05/19 11:29:51;;;;;;;6.45;1.20;;;;;;;;;;5284118;28;20089;-70
2022/05/19 11:32:25;;;;;;;6.90;1.13;;;;;;;;;;5283888;28;20150;-70
2022/05/19 11:35:05;;;;;;;9.55;1.40;;;;;;;;;;5283869;28;20032;-70
2022/05/19 11:38:03;;;;;;;4.88;1.10;;;;;;;;;;5284075;28;20028;-70
2022/05/19 11:40:37;;;;;;;10.45;1.40;;;;;;;;;;5282826;28;20046;-70
2022/05/19 11:43:12;;;;;;;249.27;13.68;;;;;;;;;;5283772;28;20490;-70
2022/05/19 11:46:03;;;;;;;47.55;4.13;;;;;;;;;;5283944;28;20456;-69
2022/05/19 11:57:20;;;;;;;4.32;0.73;;;;;;;;;;5282999;28;20036;-69
2022/05/19 11:59:55;;;;;;;6.00;0.50;;;;;;;;;;5284164;28;20017;-69
2022/05/19 12:02:28;;;;;;;3.78;0.40;;;;;;;;;;5282741;28;20099;-69
2022/05/19 12:05:13;;;;;;;2.70;0.30;;;;;;;;;;5283809;28;20020;-69
2022/05/19 12:07:57;;;;;;;3.40;0.38;;;;;;;;;;5283532;28;20387;-70
2022/05/19 12:10:33;;;;;;;2.22;0.43;;;;;;;;;;5282539;28;20455;-69
2022/05/19 12:13:04;;;;;;;3.17;0.50;;;;;;;;;;5283658;28;20046;-69
2022/05/19 12:15:48;;;;;;;2.72;0.60;;;;;;;;;;5282674;28;20012;-69
2022/05/19 12:18:22;;;;;;;4.43;1.10;;;;;;;;;;5282743;28;20154;-69
2022/05/19 12:21:14;;;;;;;4.10;1.27;;;;;;;;;;5283469;28;20133;-70
2022/05/19 12:23:45;;;;;;;5.28;1.70;;;;;;;;;;5282590;28;20028;-70
2022/05/19 12:26:16;;;;;;;5.50;2.22;;;;;;;;;;5283351;28;20382;-70
2022/05/19 12:29:08;;;;;;;7.28;3.13;;;;;;;;;;5283275;28;20486;-70
2022/05/19 12:31:59;;;;;;;5.85;3.58;;;;;;;;;;5281545;28;20040;-69
2022/05/19 12:34:32;;;;;;;7.13;4.57;;;;;;;;;;5282895;28;20165;-69
2022/05/19 12:37:08;;;;;;;5.93;4.35;;;;;;;;;;5282669;28;20021;-69
2022/05/19 12:39:47;;;;;;;8.13;5.38;;;;;;;;;;5283028;28;20063;-71
2022/05/19 12:42:26;;;;;;;7.43;5.43;;;;;;;;;;5282893;28;20028;-70
2022/05/19 12:44:58;;;;;;;8.25;6.50;;;;;;;;;;5282100;28;20028;-70
2022/05/19 12:47:30;;;;;;;7.63;6.57;;;;;;;;;;5282552;28;20472;-70
2022/05/19 12:50:01;;;;;;;7.40;6.45;;;;;;;;;;5282557;28;20036;-69
2022/05/19 12:52:52;;;;;;;9.05;6.35;;;;;;;;;;5281835;28;20097;-68
2022/05/19 12:55:23;;;;;;;7.97;5.95;;;;;;;;;;5282542;28;20574;-69
2022/05/19 12:57:56;;;;;;;11.50;6.68;;;;;;;;;;5282431;28;20013;-68
2022/05/19 13:00:35;;;;;;;6.55;5.57;;;;;;;;;;5282171;28;20032;-71
2022/05/19 13:03:08;;;;;;;9.15;7.88;;;;;;;;;;5282945;28;20039;-69
2022/05/19 13:05:50;;;;;;;9.27;8.25;;;;;;;;;;5281534;28;20425;-69
2022/05/19 13:08:32;;;;;;;7.40;6.70;;;;;;;;;;5282269;28;20027;-69
2022/05/19 13:11:11;;;;;;;7.70;6.60;;;;;;;;;;5282405;28;20494;-70
2022/05/19 13:13:43;;;;;;;7.95;6.85;;;;;;;;;;5281488;28;20116;-69
2022/05/19 13:16:17;;;;;;;7.80;6.88;;;;;;;;;;5282264;28;20031;-70
2022/05/19 13:19:04;;;;;;;9.52;7.38;;;;;;;;;;5281579;28;20059;-68
2022/05/19 13:21:44;;;;;;;7.75;6.72;;;;;;;;;;5281686;28;20052;-68
2022/05/19 13:24:15;;;;;;;9.73;7.72;;;;;;;;;;5282035;28;20016;-68
2022/05/19 13:30:19;;;;;;;8.40;7.03;;;;;;;;;;5281479;28;20021;-69
2022/05/19 13:32:35;;;;;;;11.95;6.38;;;;;;;;;;5281417;28;20041;-69
2022/05/19 13:35:06;;;;;;;7.63;6.40;;;;;;;;;;5282066;28;20051;-69
2022/05/19 13:37:39;;;;;;;12.15;7.55;;;;;;;;;;5281844;28;20025;-71
2022/05/19 13:40:27;;;;;;;14.70;8.80;;;;;;;;;;5281104;28;20039;-71
2022/05/19 13:43:00;;;;;;;12.20;9.32;;;;;;;;;;5281864;28;20040;-69
2022/05/19 13:45:36;;;;;;;11.77;10.57;;;;;;;;;;5281614;28;20535;-71
2022/05/19 13:48:15;;;;;;;11.05;9.98;;;;;;;;;;5280913;28;20032;-69
2022/05/19 13:50:48;;;;;;;11.07;10.02;;;;;;;;;;5281516;28;20119;-69
2022/05/19 13:53:20;;;;;;;12.30;11.23;;;;;;;;;;5281075;28;20410;-69
2022/05/19 13:55:58;;;;;;;11.05;9.95;;;;;;;;;;5281083;28;20020;-69
2022/05/19 13:58:30;;;;;;;11.57;9.57;;;;;;;;;;5281243;28;20039;-69
2022/05/19 14:01:02;;;;;;;9.18;8.32;;;;;;;;;;5280716;28;20075;-69
2022/05/19 14:03:33;;;;;;;7.70;6.13;;;;;;;;;;5281099;28;20031;-69
2022/05/19 14:06:04;;;;;;;8.10;7.40;;;;;;;;;;5281603;28;20376;-70
2022/05/19 14:08:36;;;;;;;6.60;6.00;;;;;;;;;;5280466;28;20019;-70
2022/05/19 14:11:07;;;;;;;7.03;6.25;;;;;;;;;;5281112;28;20032;-70
2022/05/19 14:13:38;;;;;;;6.70;5.18;;;;;;;;;;5281214;28;20468;-70
2022/05/19 14:16:17;;;;;;;6.67;4.80;;;;;;;;;;5280193;28;20063;-70
2022/05/19 14:18:52;;;;;;;6.38;5.78;;;;;;;;;;5281390;28;20369;-69
2022/05/19 14:21:25;;;;;;;5.78;5.18;;;;;;;;;;5280782;28;20044;-69
2022/05/19 14:24:01;;;;;;;6.70;5.07;;;;;;;;;;5280585;28;20107;-69
2022/05/19 14:26:44;;;;;;;4.63;4.15;;;;;;;;;;5280891;28;20056;-69
2022/05/19 14:29:18;;;;;;;5.50;5.00;;;;;;;;;;5280196;28;20066;-70
2022/05/19 14:31:54;;;;;;;5.07;3.47;;;;;;;;;;5281398;28;20032;-68
2022/05/19 14:34:28;;;;;;;7.72;3.72;;;;;;;;;;5280735;28;20036;-69
2022/05/19 14:37:06;;;;;;;3.97;3.00;;;;;;;;;;5280350;28;20017;-67
2022/05/19 14:39:41;;;;;;;4.50;3.22;;;;;;;;;;5281201;28;20451;-68
2022/05/19 14:45:09;;;;;;;4.20;3.78;;;;;;;;;;5284890;28;20025;-68
2022/05/19 14:47:47;;;;;;;5.13;4.40;;;;;;;;;;5285118;28;20357;-68
2022/05/19 14:50:28;;;;;;;6.10;4.30;;;;;;;;;;5284423;28;20379;-68
2022/05/19 14:53:02;;;;;;;7.88;5.65;;;;;;;;;;5285437;28;20029;-68
2022/05/19 14:55:41;;;;;;;5.82;5.32;;;;;;;;;;5284824;28;20013;-68
2022/05/19 14:58:17;;;;;;;5.90;4.68;;;;;;;;;;5284544;28;20031;-68
2022/05/19 15:00:49;;;;;;;4.70;4.20;;;;;;;;;;5285152;28;20027;-69
2022/05/19 15:03:20;;;;;;;7.25;4.57;;;;;;;;;;5284459;28;20482;-70
2022/05/19 15:05:52;;;;;;;5.30;4.47;;;;;;;;;;5283941;28;20043;-68
2022/05/19 15:08:23;;;;;;;7.72;4.80;;;;;;;;;;5281704;28;20043;-68
2022/05/19 15:10:55;;;;;;;6.80;6.13;;;;;;;;;;5284739;28;20111;-69
2022/05/19 15:13:26;;;;;;;6.18;5.13;;;;;;;;;;5283873;28;20459;-68
2022/05/19 15:15:57;;;;;;;5.40;4.90;;;;;;;;;;5284680;28;20024;-68
2022/05/19 15:18:29;;;;;;;6.15;5.65;;;;;;;;;;5283392;28;20103;-69
2022/05/19 15:21:00;;;;;;;6.65;6.03;;;;;;;;;;5284199;28;20098;-69
2022/05/19 15:23:31;;;;;;;7.13;5.77;;;;;;;;;;5284101;28;20016;-69
2022/05/19 15:26:06;;;;;;;7.63;5.80;;;;;;;;;;5283615;28;20765;-68
2022/05/19 15:28:39;;;;;;;5.88;5.20;;;;;;;;;;5284415;28;20498;-68
2022/05/19 15:31:13;;;;;;;6.22;5.30;;;;;;;;;;5283685;28;20029;-68
2022/05/19 15:33:44;;;;;;;7.10;4.63;;;;;;;;;;5283271;28;20024;-69
2022/05/19 15:36:17;;;;;;;6.97;5.50;;;;;;;;;;5284210;28;20030;-69
2022/05/19 15:38:48;;;;;;;6.70;4.35;;;;;;;;;;5283771;28;20127;-69
2022/05/19 15:41:20;;;;;;;6.88;4.78;;;;;;;;;;5282881;28;20527;-69
2022/05/19 15:43:51;;;;;;;5.82;4.95;;;;;;;;;;5283903;28;20432;-69